createdAt,value
2022-11-05T00:01:08.529Z,100817.81
2022-11-05T00:04:09.098Z,100812.66
2022-11-05T00:07:12.764Z,100814.81
2022-11-05T00:09:57.842Z,100812.38
2022-11-05T00:12:57.830Z,100817.91
2022-11-05T00:15:56.593Z,100826.91
2022-11-05T00:18:36.438Z,100833.38
2022-11-05T00:22:18.003Z,100829.31
2022-11-05T00:25:42.826Z,100839.31
2022-11-05T00:28:22.606Z,100833.34
2022-11-05T00:31:05.133Z,100842.19
2022-11-05T00:33:45.441Z,100837.16
2022-11-05T00:36:26.846Z,100835.50
2022-11-05T00:39:08.663Z,100832.00
2022-11-05T00:42:16.991Z,100823.25
2022-11-05T00:45:03.075Z,100823.50
2022-11-05T00:48:03.067Z,100821.59
2022-11-05T00:50:44.039Z,100813.78
2022-11-05T00:53:24.818Z,100812.38
2022-11-05T00:56:05.479Z,100804.34
2022-11-05T00:58:49.050Z,100805.50
2022-11-05T01:01:29.721Z,100793.41
2022-11-05T01:04:11.049Z,100778.28
2022-11-05T01:06:51.037Z,100765.94
2022-11-05T01:09:34.378Z,100752.78
2022-11-05T01:12:15.295Z,100743.91
2022-11-05T01:14:55.077Z,100736.25
2022-11-05T01:17:34.900Z,100736.00
2022-11-05T01:20:14.998Z,100730.72
2022-11-05T01:22:56.101Z,100715.16
2022-11-05T01:25:35.985Z,100706.66
2022-11-05T01:28:17.418Z,100690.94
2022-11-05T01:30:58.754Z,100679.31
2022-11-05T01:33:40.583Z,100662.91
2022-11-05T01:36:21.581Z,100649.63
2022-11-05T01:39:01.878Z,100634.63
2022-11-05T01:41:54.621Z,100636.19
2022-11-05T01:44:50.835Z,100638.81
2022-11-05T01:47:47.339Z,100636.44
2022-11-05T01:50:30.153Z,100639.06
2022-11-05T01:53:12.492Z,100647.94
2022-11-05T01:55:58.731Z,100648.78
2022-11-05T01:58:43.795Z,100641.00
2022-11-05T02:01:24.506Z,100641.00
2022-11-05T02:04:06.398Z,100643.63
2022-11-05T02:06:46.857Z,100648.19
2022-11-05T02:09:27.692Z,100635.97
2022-11-05T02:12:08.841Z,100630.56
2022-11-05T02:14:49.846Z,100626.25
2022-11-05T02:17:34.407Z,100621.00
2022-11-05T02:20:23.057Z,100606.97
2022-11-05T02:23:11.697Z,100592.97
2022-11-05T02:26:03.024Z,100591.16
2022-11-05T02:28:50.413Z,100596.31
2022-11-05T02:31:30.959Z,100596.56
2022-11-05T02:34:12.936Z,100586.97
2022-11-05T02:37:06.254Z,100582.66
2022-11-05T02:39:48.335Z,100582.66
2022-11-05T02:42:31.756Z,100587.19
2022-11-05T02:45:11.706Z,100589.84
2022-11-05T02:47:56.098Z,100597.84
2022-11-05T02:50:38.311Z,100599.66
2022-11-05T02:53:23.966Z,100592.00
2022-11-05T02:56:06.614Z,100599.19
2022-11-05T02:59:01.109Z,100601.94
2022-11-05T03:01:42.214Z,100611.66
2022-11-05T03:04:23.813Z,100608.31
2022-11-05T03:07:17.490Z,100616.34
2022-11-05T03:10:16.673Z,100627.84
2022-11-05T03:13:01.418Z,100636.69
2022-11-05T03:15:45.030Z,100634.28
2022-11-05T03:18:27.978Z,100642.31
2022-11-05T03:21:21.529Z,100638.97
2022-11-05T03:24:03.782Z,100646.84
2022-11-05T03:26:44.576Z,100650.47
2022-11-05T03:29:28.244Z,100652.50
2022-11-05T03:32:12.401Z,100647.34
2022-11-05T03:34:57.787Z,100644.97
2022-11-05T03:37:41.726Z,100652.84
2022-11-05T03:40:22.626Z,100645.91
2022-11-05T03:43:04.187Z,100652.13
2022-11-05T03:45:45.842Z,100655.72
2022-11-05T03:48:26.587Z,100654.91
2022-11-05T03:51:09.774Z,100651.38
2022-11-05T03:53:51.228Z,100665.53
2022-11-05T03:56:35.670Z,100658.59
2022-11-05T03:59:16.847Z,100659.53
2022-11-05T04:01:56.875Z,100654.38
2022-11-05T04:04:38.212Z,100657.75
2022-11-05T04:07:36.972Z,100662.28
2022-11-05T04:10:34.872Z,100652.72
2022-11-05T04:13:24.950Z,100656.31
2022-11-05T04:16:28.183Z,100656.44
2022-11-05T04:19:09.083Z,100658.09
2022-11-05T04:22:06.542Z,100654.75
2022-11-05T04:24:47.895Z,100656.44
2022-11-05T04:27:27.705Z,100659.06
2022-11-05T04:30:20.224Z,100660.84
2022-11-05T04:33:00.822Z,100668.88
2022-11-05T04:35:42.464Z,100667.19
2022-11-05T04:38:22.904Z,100674.38
2022-11-05T04:41:14.305Z,100672.81
2022-11-05T04:43:57.327Z,100684.19
2022-11-05T04:46:40.318Z,100679.88
2022-11-05T04:49:21.312Z,100672.06
2022-11-05T04:52:04.214Z,100678.22
2022-11-05T04:54:44.179Z,100672.06
2022-11-05T04:57:23.968Z,100667.16
2022-11-05T05:00:01.881Z,100670.75
2022-11-05T05:02:41.993Z,100668.84
2022-11-05T05:05:31.708Z,100670.63
2022-11-05T05:08:13.750Z,100676.97
2022-11-05T05:10:56.769Z,100683.19
2022-11-05T05:13:37.759Z,100686.69
2022-11-05T05:16:20.199Z,100683.31
2022-11-05T05:19:00.659Z,100693.00
2022-11-05T05:21:42.280Z,100701.88
2022-11-05T05:24:25.553Z,100698.50
2022-11-05T05:27:06.515Z,100706.78
2022-11-05T05:29:47.819Z,100712.13
2022-11-05T05:32:26.862Z,100715.81
2022-11-05T05:35:26.733Z,100738.78
2022-11-05T05:38:08.066Z,100734.59
2022-11-05T05:40:49.991Z,100737.34
2022-11-05T05:43:33.021Z,100731.25
2022-11-05T05:46:14.606Z,100735.66
2022-11-05T05:48:55.278Z,100743.69
2022-11-05T05:51:35.097Z,100741.16
2022-11-05T05:54:17.292Z,100750.84
2022-11-05T05:56:57.939Z,100752.84
2022-11-05T05:59:37.731Z,100749.38
2022-11-05T06:02:17.605Z,100766.97
2022-11-05T06:04:58.940Z,100765.41
2022-11-05T06:07:38.743Z,100774.03
2022-11-05T06:10:22.702Z,100771.63
2022-11-05T06:13:01.421Z,100780.56
2022-11-05T06:15:41.411Z,100783.09
2022-11-05T06:18:24.786Z,100791.00
2022-11-05T06:21:06.275Z,100784.28
2022-11-05T06:23:48.313Z,100793.00
2022-11-05T06:26:28.567Z,100787.84
2022-11-05T06:29:10.756Z,100795.13
2022-11-05T06:31:51.520Z,100800.28
2022-11-05T06:34:32.854Z,100801.25
2022-11-05T06:37:16.283Z,100804.59
2022-11-05T06:39:57.432Z,100811.78
2022-11-05T06:42:38.689Z,100815.13
2022-11-05T06:45:20.392Z,100809.03
2022-11-05T06:48:03.505Z,100809.63
2022-11-05T06:50:45.967Z,100801.63
2022-11-05T06:53:25.897Z,100805.81
2022-11-05T06:56:08.300Z,100809.41
2022-11-05T06:58:48.723Z,100800.13
2022-11-05T07:01:28.561Z,100790.34
2022-11-05T07:04:10.028Z,100779.47
2022-11-05T07:06:53.398Z,100761.16
2022-11-05T07:09:32.387Z,100750.41
2022-11-05T07:12:12.668Z,100744.91
2022-11-05T07:14:54.286Z,100731.63
2022-11-05T07:17:35.333Z,100719.19
2022-11-05T07:20:15.185Z,100721.81
2022-11-05T07:23:03.268Z,100720.66
2022-11-05T07:25:44.406Z,100733.09
2022-11-05T07:28:22.295Z,100733.22
2022-11-05T07:31:00.485Z,100713.00
2022-11-05T07:33:42.614Z,100701.03
2022-11-05T07:36:23.584Z,100685.88
2022-11-05T07:39:19.738Z,100666.00
2022-11-05T07:42:02.888Z,100644.44
2022-11-05T07:44:57.098Z,100682.44
2022-11-05T07:47:38.895Z,100613.56
2022-11-05T07:50:20.147Z,100592.75
2022-11-05T07:53:02.079Z,100564.22
2022-11-05T07:55:42.705Z,100552.09
2022-11-05T07:58:24.915Z,100547.19
2022-11-05T08:01:07.103Z,100539.75
2022-11-05T08:03:48.366Z,100530.63
2022-11-05T08:06:32.221Z,100527.72
2022-11-05T08:09:14.831Z,100528.22
2022-11-05T08:12:02.652Z,100512.59
2022-11-05T08:14:43.650Z,100501.47
2022-11-05T08:17:46.190Z,100497.22
2022-11-05T08:20:27.085Z,100488.91
2022-11-05T08:23:09.387Z,100491.63
2022-11-05T08:25:49.919Z,100493.75
2022-11-05T08:28:32.742Z,100502.56
2022-11-05T08:31:14.322Z,100505.38
2022-11-05T08:34:02.290Z,100515.44
2022-11-05T08:36:46.365Z,100516.84
2022-11-05T08:39:26.585Z,100525.91
2022-11-05T08:42:06.458Z,100540.28
2022-11-05T08:44:47.767Z,100550.56
2022-11-05T08:47:30.653Z,100561.44
2022-11-05T08:50:12.615Z,100563.81
2022-11-05T08:52:53.640Z,100583.47
2022-11-05T08:55:31.571Z,100582.41
2022-11-05T08:58:17.580Z,100593.03
2022-11-05T09:01:28.334Z,100617.94
2022-11-05T09:04:09.761Z,100630.38
2022-11-05T09:06:51.293Z,100645.72
2022-11-05T09:09:32.711Z,100668.47
2022-11-05T09:12:13.950Z,100686.41
2022-11-05T09:15:07.644Z,100716.69
2022-11-05T09:17:49.450Z,100729.22
2022-11-05T09:20:29.931Z,100762.09
2022-11-05T09:23:11.972Z,100779.97
2022-11-05T09:25:52.670Z,100801.69
2022-11-05T09:28:53.657Z,100836.16
2022-11-05T09:31:34.653Z,100849.56
2022-11-05T09:34:14.565Z,100865.59
2022-11-05T09:36:58.812Z,100888.78
2022-11-05T09:39:38.916Z,100902.78
2022-11-05T09:42:20.735Z,100920.69
2022-11-05T09:45:02.367Z,100936.88
2022-11-05T09:47:47.012Z,100950.16
2022-11-05T09:50:31.931Z,100972.34
2022-11-05T09:53:12.811Z,100978.56
2022-11-05T09:55:54.839Z,100984.00
2022-11-05T09:58:37.389Z,100987.81
2022-11-05T10:01:25.820Z,100977.09
2022-11-05T10:04:08.337Z,100962.94
2022-11-05T10:06:50.082Z,100945.09
2022-11-05T10:09:31.231Z,100923.19
2022-11-05T10:12:18.206Z,100905.50
2022-11-05T10:14:59.893Z,100879.66
2022-11-05T10:17:42.842Z,100837.19
2022-11-05T10:20:25.719Z,100796.25
2022-11-05T10:23:10.388Z,101061.50
2022-11-05T10:25:52.646Z,101027.81
2022-11-05T10:28:34.707Z,100975.28
2022-11-05T10:31:17.645Z,100941.22
2022-11-05T10:34:00.938Z,100897.59
2022-11-05T10:36:44.298Z,100868.91
2022-11-05T10:39:27.604Z,100847.28
2022-11-05T10:42:23.941Z,100834.97
2022-11-05T10:45:05.742Z,100833.28
2022-11-05T10:47:49.908Z,100831.19
2022-11-05T10:50:30.381Z,100829.41
2022-11-05T10:53:13.420Z,100824.88
2022-11-05T10:55:54.976Z,100836.22
2022-11-05T10:58:42.029Z,100834.47
2022-11-05T11:01:22.015Z,100848.84
2022-11-05T11:04:23.676Z,100860.75
2022-11-05T11:07:06.832Z,100879.66
2022-11-05T11:09:49.506Z,100906.53
2022-11-05T11:12:36.844Z,100910.19
2022-11-05T11:15:27.602Z,100923.25
2022-11-05T11:18:35.975Z,100945.03
2022-11-05T11:21:23.022Z,100952.59
2022-11-05T11:24:02.896Z,100967.03
2022-11-05T11:26:43.428Z,100987.25
2022-11-05T11:29:24.169Z,100994.13
2022-11-05T11:32:04.653Z,101014.00
2022-11-05T11:34:46.733Z,101019.00
2022-11-05T11:37:27.985Z,101023.19
2022-11-05T11:40:13.826Z,101033.75
2022-11-05T11:42:55.945Z,101037.41
2022-11-05T11:45:37.597Z,101040.75
2022-11-05T11:48:19.756Z,101048.91
2022-11-05T11:51:00.840Z,101053.59
2022-11-05T11:53:40.719Z,101059.59
2022-11-05T11:56:20.441Z,101065.06
2022-11-05T11:59:02.414Z,101070.28
2022-11-05T12:01:56.298Z,101064.28
2022-11-05T12:04:44.345Z,101060.47
2022-11-05T12:07:31.905Z,101066.97
2022-11-05T12:10:17.520Z,101076.66
2022-11-05T12:13:02.033Z,101079.72
2022-11-05T12:15:44.890Z,101086.72
2022-11-05T12:18:29.161Z,101088.22
2022-11-05T12:21:13.537Z,101094.88
2022-11-05T12:23:58.285Z,101094.41
2022-11-05T12:26:43.383Z,101097.09
2022-11-05T12:29:35.538Z,101098.56
2022-11-05T12:32:23.534Z,101108.78
2022-11-05T12:35:06.538Z,101111.94
2022-11-05T12:37:49.789Z,101099.56
2022-11-05T12:40:51.883Z,101102.72
2022-11-05T12:43:35.869Z,101103.72
2022-11-05T12:46:19.581Z,101100.88
2022-11-05T12:49:57.550Z,101100.22
2022-11-05T12:52:50.046Z,101097.81
2022-11-05T12:55:29.939Z,101095.28
2022-11-05T12:58:11.429Z,101095.56
2022-11-05T13:00:53.556Z,101097.53
2022-11-05T13:03:33.907Z,101102.78
2022-11-05T13:07:01.873Z,101114.69
2022-11-05T13:09:44.613Z,101109.00
2022-11-05T13:12:25.793Z,101112.69
2022-11-05T13:15:20.141Z,101108.34
2022-11-05T13:18:02.373Z,101111.47
2022-11-05T13:21:03.409Z,101114.31
2022-11-05T13:23:44.833Z,101109.00
2022-11-05T13:26:25.632Z,101112.78
2022-11-05T13:29:06.755Z,101110.13
2022-11-05T13:31:46.666Z,101105.75
2022-11-05T13:34:33.456Z,101096.84
2022-11-05T13:37:34.406Z,101095.00
2022-11-05T13:40:18.011Z,101096.28
2022-11-05T13:43:02.752Z,101089.75
2022-11-05T13:45:56.767Z,101077.91
2022-11-05T13:48:48.831Z,101085.91
2022-11-05T13:51:41.389Z,101081.38
2022-11-05T13:54:40.186Z,101075.09
2022-11-05T13:57:23.944Z,101063.56
2022-11-05T14:00:06.483Z,101068.53
2022-11-05T14:03:01.751Z,101067.22
2022-11-05T14:05:42.495Z,101060.69
2022-11-05T14:08:24.630Z,101052.53
2022-11-05T14:11:06.544Z,101049.78
2022-11-05T14:13:46.789Z,101042.75
2022-11-05T14:16:40.921Z,101042.50
2022-11-05T14:19:35.265Z,101038.41
2022-11-05T14:22:37.612Z,101035.19
2022-11-05T14:25:35.980Z,101026.72
2022-11-05T14:28:33.584Z,101017.78
2022-11-05T14:31:41.103Z,101015.28
2022-11-05T14:34:41.354Z,101014.03
2022-11-05T14:37:25.302Z,101014.25
2022-11-05T14:40:19.599Z,101015.69
2022-11-05T14:43:17.785Z,101013.84
2022-11-05T14:45:58.361Z,101006.22
2022-11-05T14:48:40.357Z,101004.84
2022-11-05T14:51:21.735Z,101001.78
2022-11-05T14:54:03.889Z,101007.28
2022-11-05T14:56:54.980Z,100998.06
2022-11-05T14:59:50.559Z,100997.81
2022-11-05T15:02:34.910Z,101002.63
2022-11-05T15:05:34.343Z,101007.34
2022-11-05T15:08:32.784Z,100997.03
2022-11-05T15:11:14.520Z,100990.47
2022-11-05T15:13:59.033Z,100986.16
2022-11-05T15:16:43.429Z,100984.22
2022-11-05T15:19:24.714Z,100978.03
2022-11-05T15:22:06.405Z,100973.88
2022-11-05T15:24:46.546Z,100982.13
2022-11-05T15:27:33.100Z,100982.56
2022-11-05T15:30:19.528Z,100991.09
2022-11-05T15:33:10.615Z,100992.59
2022-11-05T15:35:53.454Z,100991.06
2022-11-05T15:38:35.047Z,100985.66
2022-11-05T15:41:17.209Z,100987.03
2022-11-05T15:43:57.147Z,100986.19
2022-11-05T15:46:36.917Z,100972.50
2022-11-05T15:49:16.749Z,100976.28
2022-11-05T15:51:57.095Z,100977.56
2022-11-05T15:54:38.320Z,100981.19
2022-11-05T15:57:23.403Z,100981.88
2022-11-05T16:00:07.861Z,100980.63
2022-11-05T16:02:55.331Z,100973.94
2022-11-05T16:05:35.054Z,100974.63
2022-11-05T16:08:19.421Z,100967.19
2022-11-05T16:10:59.753Z,100964.13
2022-11-05T16:13:40.894Z,100973.88
2022-11-05T16:16:25.715Z,100967.63
2022-11-05T16:19:20.251Z,100969.84
2022-11-05T16:22:02.194Z,100969.69
2022-11-05T16:24:42.337Z,100971.66
2022-11-05T16:27:23.613Z,100973.59
2022-11-05T16:30:03.624Z,100977.47
2022-11-05T16:32:44.858Z,100978.19
2022-11-05T16:35:25.218Z,100978.59
2022-11-05T16:38:06.334Z,100976.78
2022-11-05T16:40:47.489Z,100978.03
2022-11-05T16:43:27.446Z,100977.63
2022-11-05T16:46:11.366Z,100981.25
2022-11-05T16:48:53.669Z,100988.38
2022-11-05T16:51:34.711Z,100987.78
2022-11-05T16:54:14.480Z,100991.66
2022-11-05T16:56:54.310Z,100993.63
2022-11-05T16:59:45.945Z,100997.25
2022-11-05T17:02:26.870Z,101002.97
2022-11-05T17:05:08.458Z,101009.22
2022-11-05T17:07:48.693Z,101010.78
2022-11-05T17:10:29.956Z,101014.41
2022-11-05T17:13:12.612Z,101025.69
2022-11-05T17:15:52.750Z,101033.94
2022-11-05T17:18:34.212Z,101034.06
2022-11-05T17:21:15.624Z,101029.03
2022-11-05T17:23:56.975Z,101035.75
2022-11-05T17:26:38.792Z,101037.22
2022-11-05T17:29:21.842Z,101036.13
2022-11-05T17:32:02.746Z,101037.94
2022-11-05T17:34:44.259Z,101035.28
2022-11-05T17:37:27.618Z,101041.56
2022-11-05T17:40:09.699Z,101041.41
2022-11-05T17:42:50.082Z,101052.16
2022-11-05T17:45:31.544Z,101055.22
2022-11-05T17:48:13.079Z,101057.84
2022-11-05T17:50:54.289Z,101055.47
2022-11-05T17:53:37.657Z,101057.16
2022-11-05T17:56:32.110Z,101055.47
2022-11-05T17:59:12.621Z,101053.66
2022-11-05T18:01:54.422Z,101060.47
2022-11-05T18:04:35.675Z,101054.44
2022-11-05T18:07:17.684Z,101058.78
2022-11-05T18:09:58.656Z,101063.25
2022-11-05T18:12:40.050Z,101066.00
2022-11-05T18:15:23.288Z,101069.25
2022-11-05T18:18:06.373Z,101073.00
2022-11-05T18:20:47.353Z,101065.44
2022-11-05T18:23:30.791Z,101059.16
2022-11-05T18:26:12.018Z,101055.53
2022-11-05T18:28:53.103Z,101054.84
2022-11-05T18:31:30.996Z,101054.28
2022-11-05T18:34:11.293Z,101048.69
2022-11-05T18:36:56.590Z,101056.53
2022-11-05T18:39:37.157Z,101052.03
2022-11-05T18:42:16.928Z,101052.59
2022-11-05T18:44:56.723Z,101045.63
2022-11-05T18:47:34.907Z,101049.38
2022-11-05T18:50:15.503Z,101043.38
2022-11-05T18:52:56.194Z,101046.72
2022-11-05T18:55:35.991Z,101043.09
2022-11-05T18:58:15.826Z,101048.25
2022-11-05T19:00:55.683Z,101051.88
2022-11-05T19:03:54.401Z,101052.03
2022-11-05T19:06:35.619Z,101048.41
2022-11-05T19:09:58.575Z,101045.31
2022-11-05T19:12:39.458Z,101047.13
2022-11-05T19:15:19.974Z,101047.50
2022-11-05T19:18:01.197Z,101047.34
2022-11-05T19:20:41.041Z,101045.53
2022-11-05T19:23:20.846Z,101047.50
2022-11-05T19:26:15.476Z,101054.88
2022-11-05T19:28:55.417Z,101054.03
2022-11-05T19:31:35.284Z,101041.75
2022-11-05T19:34:19.029Z,101045.38
2022-11-05T19:36:59.590Z,101046.06
2022-11-05T19:39:40.417Z,101041.03
2022-11-05T19:42:20.873Z,101047.06
2022-11-05T19:45:23.147Z,101046.91
2022-11-05T19:48:01.261Z,101044.41
2022-11-05T19:50:42.728Z,101049.69
2022-11-05T19:53:24.069Z,101054.72
2022-11-05T19:56:06.732Z,101057.66
2022-11-05T19:59:00.565Z,101055.00
2022-11-05T20:01:41.749Z,101059.31
2022-11-05T20:04:21.250Z,101055.44
2022-11-05T20:07:01.292Z,101061.56
2022-11-05T20:09:43.131Z,101062.81
2022-11-05T20:12:24.050Z,101060.03
2022-11-05T20:15:04.667Z,101054.88
2022-11-05T20:17:43.426Z,101054.88
2022-11-05T20:20:23.674Z,101059.06
2022-11-05T20:23:28.093Z,101054.72
2022-11-05T20:26:08.739Z,101056.13
2022-11-05T20:28:49.612Z,101063.13
2022-11-05T20:31:30.154Z,101053.63
2022-11-05T20:34:11.399Z,101060.47
2022-11-05T20:36:49.284Z,101055.06
2022-11-05T20:39:29.382Z,101054.81
2022-11-05T20:42:10.855Z,101053.97
2022-11-05T20:44:54.194Z,101056.34
2022-11-05T20:47:35.289Z,101056.22
2022-11-05T20:50:16.707Z,101059.69
2022-11-05T20:52:58.234Z,101063.59
2022-11-05T20:55:43.277Z,101062.34
2022-11-05T20:58:23.053Z,101066.94
2022-11-05T21:01:04.456Z,101067.91
2022-11-05T21:03:43.529Z,101072.25
2022-11-05T21:06:26.615Z,101078.50
2022-11-05T21:09:08.487Z,101070.69
2022-11-05T21:12:07.046Z,101080.19
2022-11-05T21:14:48.970Z,101080.19
2022-11-05T21:17:31.887Z,101080.47
2022-11-05T21:20:13.146Z,101087.69
2022-11-05T21:22:52.415Z,101089.38
2022-11-05T21:25:35.170Z,101098.03
2022-11-05T21:28:14.794Z,101095.75
2022-11-05T21:30:55.358Z,101093.00
2022-11-05T21:33:36.795Z,101095.75
2022-11-05T21:36:18.299Z,101081.78
2022-11-05T21:38:59.498Z,101085.41
2022-11-05T21:41:39.062Z,101092.50
2022-11-05T21:44:19.256Z,101087.22
2022-11-05T21:47:04.382Z,101088.91
2022-11-05T21:49:45.243Z,101085.41
2022-11-05T21:52:44.335Z,101082.91
2022-11-05T21:55:43.151Z,101080.38
2022-11-05T21:58:42.514Z,101078.31
2022-11-05T22:01:23.674Z,101073.28
2022-11-05T22:04:05.117Z,101074.50
2022-11-05T22:06:48.428Z,101074.75
2022-11-05T22:09:29.664Z,101075.25
2022-11-05T22:12:10.964Z,101063.00
2022-11-05T22:14:52.315Z,101063.81
2022-11-05T22:17:33.677Z,101062.53
2022-11-05T22:20:15.089Z,101058.94
2022-11-05T22:22:55.511Z,101056.63
2022-11-05T22:25:36.247Z,101052.56
2022-11-05T22:28:16.117Z,101053.53
2022-11-05T22:30:57.597Z,101050.56
2022-11-05T22:33:38.863Z,101053.59
2022-11-05T22:36:18.765Z,101049.53
2022-11-05T22:39:00.124Z,101040.75
2022-11-05T22:41:38.051Z,101050.84
2022-11-05T22:44:18.186Z,101045.69
2022-11-05T22:46:57.601Z,101036.91
2022-11-05T22:49:37.770Z,101030.31
2022-11-05T22:52:19.150Z,101020.13
2022-11-05T22:54:59.143Z,101018.44
2022-11-05T22:57:38.451Z,101017.13
2022-11-05T23:00:19.004Z,101013.50
2022-11-05T23:02:59.143Z,101025.19
2022-11-05T23:05:39.956Z,101019.66
2022-11-05T23:08:38.713Z,101011.72
2022-11-05T23:11:38.325Z,101012.59
2022-11-05T23:14:19.157Z,101014.00
2022-11-05T23:17:18.401Z,101010.25
2022-11-05T23:20:31.698Z,101012.63
2022-11-05T23:23:30.823Z,101010.56
2022-11-05T23:26:27.067Z,101004.31
2022-11-05T23:29:07.818Z,101008.63
2022-11-05T23:32:05.262Z,101005.03
2022-11-05T23:34:46.675Z,100999.50
2022-11-05T23:37:44.301Z,100996.97
2022-11-05T23:40:24.094Z,100997.69
2022-11-05T23:43:23.771Z,101001.31
2022-11-05T23:46:22.279Z,101006.47
2022-11-05T23:49:08.317Z,101000.34
2022-11-05T23:51:49.493Z,101001.31
2022-11-05T23:54:31.121Z,100993.38
2022-11-05T23:57:12.355Z,100982.50
2022-11-05T23:59:52.088Z,100983.22
